createdAt,value
2019-06-26T00:00:59.617Z,33.40
2019-06-26T00:03:26.455Z,33.30
2019-06-26T00:05:53.113Z,33.30
2019-06-26T00:08:19.520Z,33.30
2019-06-26T00:10:46.434Z,33.20
2019-06-26T00:13:25.560Z,33.20
2019-06-26T00:15:41.310Z,33.20
2019-06-26T00:18:07.966Z,33.20
2019-06-26T00:20:34.800Z,33.20
2019-06-26T00:23:01.352Z,33.30
2019-06-26T00:25:27.889Z,33.30
2019-06-26T00:27:54.421Z,33.30
2019-06-26T00:30:21.067Z,33.30
2019-06-26T00:32:47.778Z,33.20
2019-06-26T00:35:14.944Z,33.20
2019-06-26T00:37:41.636Z,33.10
2019-06-26T00:40:08.470Z,33.10
2019-06-26T00:42:35.386Z,33.10
2019-06-26T00:45:06.034Z,33.10
2019-06-26T00:47:32.690Z,33.10
2019-06-26T00:49:59.116Z,33.10
2019-06-26T00:52:25.850Z,33.10
2019-06-26T00:54:52.601Z,33.10
2019-06-26T00:57:19.168Z,33.10
2019-06-26T00:59:45.680Z,33.00
2019-06-26T01:02:12.268Z,33.00
2019-06-26T01:04:49.525Z,33.00
2019-06-26T01:07:16.001Z,33.00
2019-06-26T01:09:42.635Z,33.00
2019-06-26T01:12:09.694Z,33.00
2019-06-26T01:14:36.553Z,33.00
2019-06-26T01:17:03.195Z,33.00
2019-06-26T01:19:29.712Z,32.90
2019-06-26T01:21:56.369Z,32.90
2019-06-26T01:24:22.783Z,32.90
2019-06-26T01:26:49.496Z,32.90
2019-06-26T01:29:16.219Z,32.90
2019-06-26T01:31:43.960Z,32.80
2019-06-26T01:34:10.422Z,32.80
2019-06-26T01:36:37.123Z,32.80
2019-06-26T01:39:04.975Z,32.80
2019-06-26T01:41:31.608Z,32.80
2019-06-26T01:44:10.553Z,32.70
2019-06-26T01:46:26.517Z,32.70
2019-06-26T01:48:53.186Z,32.70
2019-06-26T01:51:19.796Z,32.60
2019-06-26T01:53:46.451Z,32.50
2019-06-26T01:56:12.872Z,32.50
2019-06-26T01:58:39.315Z,32.50
2019-06-26T02:01:05.832Z,32.40
2019-06-26T02:03:32.479Z,32.40
2019-06-26T02:05:58.988Z,32.40
2019-06-26T02:08:25.457Z,32.30
2019-06-26T02:10:51.876Z,32.40
2019-06-26T02:13:18.835Z,32.30
2019-06-26T02:15:45.689Z,32.30
2019-06-26T02:18:32.245Z,32.40
2019-06-26T02:20:58.786Z,32.30
2019-06-26T02:23:25.224Z,32.30
2019-06-26T02:25:51.771Z,32.30
2019-06-26T02:28:18.324Z,32.30
2019-06-26T02:30:44.831Z,32.20
2019-06-26T02:33:11.285Z,32.20
2019-06-26T02:35:37.832Z,32.10
2019-06-26T02:38:04.329Z,32.00
2019-06-26T02:40:30.746Z,32.00
2019-06-26T02:42:57.372Z,31.90
2019-06-26T02:45:23.801Z,31.80
2019-06-26T02:47:50.326Z,31.80
2019-06-26T02:50:17.079Z,31.80
2019-06-26T02:52:43.666Z,31.70
2019-06-26T02:55:10.371Z,31.70
2019-06-26T02:57:37.095Z,31.70
2019-06-26T03:00:06.767Z,31.70
2019-06-26T03:02:33.674Z,31.70
2019-06-26T03:05:00.094Z,31.70
2019-06-26T03:07:26.510Z,31.80
2019-06-26T03:09:53.135Z,31.80
2019-06-26T03:12:19.544Z,31.90
2019-06-26T03:14:46.533Z,31.90
2019-06-26T03:17:12.993Z,32.00
2019-06-26T03:19:39.449Z,32.00
2019-06-26T03:22:05.971Z,32.10
2019-06-26T03:24:32.520Z,32.10
2019-06-26T03:26:59.005Z,32.20
2019-06-26T03:29:25.447Z,32.20
2019-06-26T03:31:51.962Z,32.30
2019-06-26T03:34:18.408Z,32.30
2019-06-26T03:36:44.821Z,32.40
2019-06-26T03:39:11.280Z,32.40
2019-06-26T03:41:37.806Z,32.40
2019-06-26T03:44:04.351Z,32.40
2019-06-26T03:46:31.055Z,32.50
2019-06-26T03:48:57.605Z,32.50
2019-06-26T03:51:24.340Z,32.60
2019-06-26T03:53:50.777Z,32.60
2019-06-26T03:56:17.508Z,32.70
2019-06-26T03:58:44.210Z,32.80
2019-06-26T04:01:10.764Z,32.90
2019-06-26T04:03:37.194Z,33.00
2019-06-26T04:06:03.835Z,33.10
2019-06-26T04:08:30.626Z,33.20
2019-06-26T04:10:57.289Z,33.30
2019-06-26T04:13:23.711Z,33.40
2019-06-26T04:15:51.145Z,33.60
2019-06-26T04:18:17.591Z,33.70
2019-06-26T04:20:44.309Z,33.90
2019-06-26T04:23:11.841Z,34.10
2019-06-26T04:25:38.545Z,34.40
2019-06-26T04:28:06.439Z,34.70
2019-06-26T04:30:33.276Z,35.00
2019-06-26T04:32:59.690Z,35.30
2019-06-26T04:35:26.329Z,35.60
2019-06-26T04:37:52.758Z,35.80
2019-06-26T04:40:20.525Z,36.10
2019-06-26T04:42:47.160Z,36.40
2019-06-26T04:45:14.116Z,36.80
2019-06-26T04:47:40.565Z,37.20
2019-06-26T04:50:08.508Z,37.60
2019-06-26T04:52:35.142Z,38.00
2019-06-26T04:55:05.077Z,38.40
2019-06-26T04:57:31.725Z,38.60
2019-06-26T04:59:58.265Z,38.90
2019-06-26T05:02:24.802Z,39.10
2019-06-26T05:04:51.366Z,39.40
2019-06-26T05:07:18.075Z,39.70
2019-06-26T05:09:44.627Z,39.90
2019-06-26T05:12:11.040Z,40.30
2019-06-26T05:14:37.665Z,40.60
2019-06-26T05:17:04.825Z,40.90
2019-06-26T05:19:31.364Z,41.30
2019-06-26T05:21:57.840Z,41.50
2019-06-26T05:24:24.263Z,41.80
2019-06-26T05:26:50.805Z,42.00
2019-06-26T05:29:17.351Z,42.20
2019-06-26T05:31:44.115Z,42.30
2019-06-26T05:34:11.235Z,42.60
2019-06-26T05:36:38.018Z,42.70
2019-06-26T05:39:05.838Z,42.90
2019-06-26T05:41:32.508Z,43.20
2019-06-26T05:43:59.021Z,43.40
2019-06-26T05:46:31.058Z,43.60
2019-06-26T05:48:54.040Z,43.70
2019-06-26T05:51:25.433Z,43.70
2019-06-26T05:54:02.511Z,43.70
2019-06-26T05:56:30.853Z,43.70
2019-06-26T05:59:06.170Z,43.70
2019-06-26T06:01:36.816Z,43.70
2019-06-26T06:04:03.465Z,43.70
2019-06-26T06:06:41.142Z,43.70
2019-06-26T06:08:59.071Z,43.60
2019-06-26T06:11:26.046Z,43.60
2019-06-26T06:13:53.483Z,43.70
2019-06-26T06:16:20.427Z,43.70
2019-06-26T06:18:48.743Z,43.80
2019-06-26T06:21:15.188Z,43.90
2019-06-26T06:23:41.661Z,43.90
2019-06-26T06:26:08.377Z,44.00
2019-06-26T06:28:35.467Z,44.10
2019-06-26T06:31:03.643Z,44.20
2019-06-26T06:33:35.532Z,44.20
2019-06-26T06:36:04.798Z,44.30
2019-06-26T06:38:31.727Z,44.40
2019-06-26T06:41:01.461Z,44.30
2019-06-26T06:43:28.774Z,44.20
2019-06-26T06:45:55.590Z,44.20
2019-06-26T06:48:22.266Z,44.20
2019-06-26T06:50:48.982Z,44.30
2019-06-26T06:53:17.216Z,44.40
2019-06-26T06:55:46.290Z,44.50
2019-06-26T06:58:13.003Z,44.60
2019-06-26T07:00:39.667Z,44.80
2019-06-26T07:03:06.427Z,45.00
2019-06-26T07:05:37.390Z,45.20
2019-06-26T07:08:04.787Z,45.30
2019-06-26T07:10:32.275Z,45.50
2019-06-26T07:12:59.400Z,45.70
2019-06-26T07:15:31.330Z,45.80
2019-06-26T07:17:58.677Z,45.90
2019-06-26T07:20:29.016Z,46.10
2019-06-26T07:22:56.589Z,46.20
2019-06-26T07:25:23.137Z,46.20
2019-06-26T07:27:49.844Z,46.30
2019-06-26T07:30:16.959Z,46.40
2019-06-26T07:32:43.628Z,46.40
2019-06-26T07:35:12.690Z,46.50
2019-06-26T07:37:41.380Z,46.60
2019-06-26T07:40:11.670Z,46.70
2019-06-26T07:42:38.462Z,46.60
2019-06-26T07:45:05.523Z,46.70
2019-06-26T07:47:42.505Z,46.90
2019-06-26T07:50:03.414Z,46.80
2019-06-26T07:52:32.039Z,46.90
2019-06-26T07:55:05.503Z,46.80
2019-06-26T07:57:39.262Z,46.90
2019-06-26T08:00:08.376Z,47.10
2019-06-26T08:02:36.152Z,47.10
2019-06-26T08:05:07.311Z,47.20
2019-06-26T08:07:35.760Z,47.40
2019-06-26T08:10:06.785Z,47.60
2019-06-26T08:12:34.793Z,47.80
2019-06-26T08:15:01.333Z,47.90
2019-06-26T08:17:29.698Z,48.00
2019-06-26T08:19:56.384Z,48.10
2019-06-26T08:22:22.879Z,48.10
2019-06-26T08:24:49.498Z,48.30
2019-06-26T08:27:16.199Z,48.30
2019-06-26T08:29:42.837Z,48.40
2019-06-26T08:32:09.529Z,48.50
2019-06-26T08:34:36.450Z,48.50
2019-06-26T08:37:03.062Z,48.60
2019-06-26T08:39:30.714Z,48.70
2019-06-26T08:41:57.323Z,48.70
2019-06-26T08:44:24.162Z,48.70
2019-06-26T08:46:50.691Z,48.70
2019-06-26T08:49:25.546Z,48.70
2019-06-26T08:51:45.831Z,48.70
2019-06-26T08:54:12.416Z,48.70
2019-06-26T08:56:39.125Z,48.70
2019-06-26T08:59:06.889Z,48.70
2019-06-26T09:01:33.516Z,48.70
2019-06-26T09:04:00.231Z,48.70
2019-06-26T09:06:26.771Z,48.70
2019-06-26T09:08:54.229Z,48.50
2019-06-26T09:11:21.209Z,48.50
2019-06-26T09:13:48.001Z,48.40
2019-06-26T09:16:14.717Z,48.30
2019-06-26T09:18:41.611Z,48.20
2019-06-26T09:21:08.423Z,48.20
2019-06-26T09:23:35.080Z,48.10
2019-06-26T09:26:01.636Z,48.10
2019-06-26T09:28:28.292Z,48.00
2019-06-26T09:30:54.957Z,48.00
2019-06-26T09:33:21.539Z,47.90
2019-06-26T09:35:48.166Z,47.70
2019-06-26T09:38:15.115Z,47.60
2019-06-26T09:40:41.582Z,47.40
2019-06-26T09:43:08.362Z,47.30
2019-06-26T09:45:35.156Z,47.30
2019-06-26T09:48:01.959Z,47.20
2019-06-26T09:50:28.697Z,47.10
2019-06-26T09:52:55.262Z,47.00
2019-06-26T09:55:30.053Z,46.90
2019-06-26T09:57:57.163Z,46.80
2019-06-26T10:00:24.645Z,46.80
2019-06-26T10:02:51.442Z,46.70
2019-06-26T10:05:18.284Z,46.70
2019-06-26T10:07:45.562Z,46.70
2019-06-26T10:10:12.462Z,46.60
2019-06-26T10:12:39.139Z,46.60
2019-06-26T10:15:09.576Z,46.70
2019-06-26T10:17:36.385Z,46.70
2019-06-26T10:20:05.646Z,46.80
2019-06-26T10:22:32.336Z,46.90
2019-06-26T10:24:59.000Z,47.10
2019-06-26T10:27:25.943Z,47.30
2019-06-26T10:29:52.678Z,47.30
2019-06-26T10:32:19.306Z,47.40
2019-06-26T10:34:46.191Z,47.50
2019-06-26T10:37:13.208Z,47.50
2019-06-26T10:39:40.370Z,47.60
2019-06-26T10:42:07.538Z,47.60
2019-06-26T10:44:34.328Z,47.60
2019-06-26T10:47:00.929Z,47.60
2019-06-26T10:49:28.358Z,47.70
2019-06-26T10:51:55.173Z,47.60
2019-06-26T10:54:22.123Z,47.60
2019-06-26T10:56:49.957Z,47.60
2019-06-26T10:59:16.863Z,47.60
2019-06-26T11:01:44.229Z,47.60
2019-06-26T11:04:11.400Z,47.60
2019-06-26T11:06:37.935Z,47.60
2019-06-26T11:09:06.980Z,47.60
2019-06-26T11:11:34.238Z,47.60
2019-06-26T11:14:01.213Z,47.60
2019-06-26T11:16:27.917Z,47.70
2019-06-26T11:18:55.013Z,47.70
2019-06-26T11:21:22.747Z,47.80
2019-06-26T11:23:49.497Z,47.90
2019-06-26T11:26:16.438Z,47.90
2019-06-26T11:28:44.294Z,47.90
2019-06-26T11:31:11.141Z,48.00
2019-06-26T11:33:41.620Z,47.90
2019-06-26T11:36:11.092Z,47.90
2019-06-26T11:38:40.602Z,47.90
2019-06-26T11:41:09.842Z,47.80
2019-06-26T11:43:39.419Z,47.80
2019-06-26T11:46:08.454Z,47.70
2019-06-26T11:48:37.970Z,47.60
2019-06-26T11:51:09.227Z,47.50
2019-06-26T11:53:41.635Z,47.40
2019-06-26T11:56:11.858Z,47.50
2019-06-26T11:58:42.180Z,47.60
2019-06-26T12:01:12.698Z,47.60
2019-06-26T12:03:41.785Z,47.60
2019-06-26T12:06:18.600Z,47.40
2019-06-26T12:08:42.213Z,47.30
2019-06-26T12:11:11.542Z,47.40
2019-06-26T12:13:40.304Z,47.40
2019-06-26T12:16:08.730Z,47.40
2019-06-26T12:18:36.021Z,47.40
2019-06-26T12:21:05.172Z,47.40
2019-06-26T12:23:33.919Z,47.50
2019-06-26T12:26:03.892Z,47.60
2019-06-26T12:28:33.567Z,47.60
2019-06-26T12:31:03.897Z,47.60
2019-06-26T12:33:33.055Z,47.60
2019-06-26T12:36:03.780Z,47.60
2019-06-26T12:38:33.727Z,47.70
2019-06-26T12:41:03.458Z,47.70
2019-06-26T12:43:33.947Z,47.70
2019-06-26T12:46:04.526Z,47.70
2019-06-26T12:48:33.199Z,47.60
2019-06-26T12:51:03.852Z,47.60
2019-06-26T12:53:32.722Z,47.40
2019-06-26T12:56:02.466Z,47.20
2019-06-26T12:58:29.446Z,47.20
2019-06-26T13:00:56.433Z,47.10
2019-06-26T13:03:23.521Z,47.10
2019-06-26T13:05:50.296Z,47.10
2019-06-26T13:08:17.460Z,46.90
2019-06-26T13:10:49.479Z,46.90
2019-06-26T13:13:12.387Z,46.80
2019-06-26T13:15:39.633Z,46.70
2019-06-26T13:18:06.411Z,46.70
2019-06-26T13:20:33.187Z,46.60
2019-06-26T13:23:00.452Z,46.50
2019-06-26T13:25:27.592Z,46.40
2019-06-26T13:27:57.836Z,46.40
2019-06-26T13:30:43.510Z,46.40
2019-06-26T13:33:17.492Z,46.40
2019-06-26T13:35:52.491Z,46.40
2019-06-26T13:38:27.046Z,46.40
2019-06-26T13:41:00.739Z,46.40
2019-06-26T13:43:36.635Z,46.20
2019-06-26T13:46:18.745Z,46.10
2019-06-26T13:48:56.137Z,46.10
2019-06-26T13:51:38.539Z,46.10
2019-06-26T13:54:13.364Z,46.10
2019-06-26T13:56:51.665Z,46.00
2019-06-26T14:00:02.137Z,46.00
2019-06-26T14:06:50.773Z,46.00
2019-06-26T14:09:17.599Z,46.30
2019-06-26T14:11:44.686Z,46.40
2019-06-26T14:14:11.920Z,46.40
2019-06-26T14:16:39.043Z,46.30
2019-06-26T14:19:06.058Z,46.30
2019-06-26T14:21:33.310Z,46.20
2019-06-26T14:24:00.367Z,46.20
2019-06-26T14:26:27.032Z,46.30
2019-06-26T14:28:54.222Z,46.10
2019-06-26T14:31:21.168Z,46.10
2019-06-26T14:33:47.858Z,46.00
2019-06-26T14:36:15.025Z,46.00
2019-06-26T14:38:41.750Z,46.00
2019-06-26T14:41:08.277Z,45.90
2019-06-26T14:43:35.134Z,45.80
2019-06-26T14:46:02.108Z,45.70
2019-06-26T14:48:28.587Z,45.60
2019-06-26T14:50:55.473Z,45.70
2019-06-26T14:53:22.176Z,45.70
2019-06-26T14:55:48.833Z,45.60
2019-06-26T14:58:15.745Z,45.50
2019-06-26T15:00:42.387Z,45.50
2019-06-26T15:03:08.845Z,45.50
2019-06-26T15:05:35.495Z,45.50
2019-06-26T15:08:02.869Z,45.50
2019-06-26T15:10:29.562Z,45.50
2019-06-26T15:12:56.434Z,45.40
2019-06-26T15:15:23.249Z,45.40
2019-06-26T15:17:49.934Z,45.30
2019-06-26T15:20:16.964Z,45.20
2019-06-26T15:22:43.930Z,45.20
2019-06-26T15:25:11.230Z,45.20
2019-06-26T15:27:38.626Z,45.20
2019-06-26T15:30:06.980Z,45.20
2019-06-26T15:32:33.627Z,45.20
2019-06-26T15:35:00.912Z,45.20
2019-06-26T15:37:29.028Z,45.20
2019-06-26T15:39:55.999Z,45.00
2019-06-26T15:42:22.818Z,45.00
2019-06-26T15:44:49.439Z,44.90
2019-06-26T15:47:15.981Z,44.90
2019-06-26T15:49:42.935Z,44.90
2019-06-26T15:52:15.017Z,44.90
2019-06-26T15:54:39.452Z,44.90
2019-06-26T15:57:06.432Z,44.90
2019-06-26T15:59:33.050Z,44.90
2019-06-26T16:01:59.712Z,44.90
2019-06-26T16:04:26.720Z,45.00
2019-06-26T16:06:53.146Z,44.90
2019-06-26T16:09:19.940Z,44.90
2019-06-26T16:11:47.121Z,44.90
2019-06-26T16:14:14.028Z,44.90
2019-06-26T16:16:42.444Z,44.90
2019-06-26T16:19:13.748Z,45.00
2019-06-26T16:21:40.393Z,45.00
2019-06-26T16:24:06.951Z,45.00
2019-06-26T16:26:34.005Z,45.00
2019-06-26T16:29:00.604Z,45.00
2019-06-26T16:31:28.399Z,44.90
2019-06-26T16:33:55.468Z,44.90
2019-06-26T16:36:22.370Z,44.90
2019-06-26T16:38:48.936Z,44.90
2019-06-26T16:41:15.692Z,44.90
2019-06-26T16:43:42.394Z,44.90
2019-06-26T16:46:09.065Z,44.80
2019-06-26T16:48:35.805Z,44.70
2019-06-26T16:51:02.543Z,44.70
2019-06-26T16:53:31.040Z,44.70
2019-06-26T16:55:57.977Z,44.70
2019-06-26T16:58:24.706Z,44.70
2019-06-26T17:00:51.417Z,44.70
2019-06-26T17:03:18.406Z,44.70
2019-06-26T17:05:45.061Z,44.70
2019-06-26T17:08:11.664Z,44.70
2019-06-26T17:10:38.429Z,44.70
2019-06-26T17:13:05.075Z,44.70
2019-06-26T17:15:31.531Z,44.70
2019-06-26T17:17:58.436Z,44.70
2019-06-26T17:20:24.989Z,44.70
2019-06-26T17:23:04.333Z,44.60
2019-06-26T17:25:20.476Z,44.40
2019-06-26T17:27:47.313Z,44.30
2019-06-26T17:30:14.446Z,44.20
2019-06-26T17:32:41.300Z,44.10
2019-06-26T17:35:08.791Z,44.10
2019-06-26T17:37:35.546Z,44.00
2019-06-26T17:40:02.999Z,44.00
2019-06-26T17:42:30.598Z,43.90
2019-06-26T17:44:57.266Z,43.90
2019-06-26T17:47:24.035Z,43.80
2019-06-26T17:49:50.485Z,43.70
2019-06-26T17:52:17.227Z,43.60
2019-06-26T17:54:45.054Z,43.40
2019-06-26T17:57:12.306Z,43.30
2019-06-26T17:59:41.321Z,43.10
2019-06-26T18:02:10.298Z,43.00
2019-06-26T18:04:37.393Z,42.90
2019-06-26T18:07:04.487Z,42.70
2019-06-26T18:09:31.844Z,42.50
2019-06-26T18:11:59.000Z,42.40
2019-06-26T18:14:26.112Z,42.20
2019-06-26T18:16:52.925Z,41.90
2019-06-26T18:19:19.649Z,41.80
2019-06-26T18:21:46.415Z,41.60
2019-06-26T18:24:13.558Z,41.40
2019-06-26T18:26:40.326Z,41.30
2019-06-26T18:29:06.955Z,41.00
2019-06-26T18:31:33.667Z,40.90
2019-06-26T18:34:00.365Z,40.70
2019-06-26T18:36:26.918Z,40.50
2019-06-26T18:38:53.968Z,40.30
2019-06-26T18:41:21.219Z,40.10
2019-06-26T18:43:48.426Z,39.80
2019-06-26T18:46:15.774Z,39.70
2019-06-26T18:48:42.616Z,39.60
2019-06-26T18:51:09.640Z,39.40
2019-06-26T18:53:52.530Z,39.30
2019-06-26T18:56:05.693Z,39.20
2019-06-26T18:58:32.432Z,39.20
2019-06-26T19:00:59.583Z,39.10
2019-06-26T19:03:26.417Z,39.00
2019-06-26T19:05:53.242Z,38.90
2019-06-26T19:08:20.284Z,38.80
2019-06-26T19:10:47.012Z,38.60
2019-06-26T19:13:13.900Z,38.60
2019-06-26T19:15:41.147Z,38.50
2019-06-26T19:18:07.993Z,38.50
2019-06-26T19:20:34.669Z,38.60
2019-06-26T19:23:01.699Z,38.70
2019-06-26T19:25:28.500Z,38.70
2019-06-26T19:27:55.151Z,38.70
2019-06-26T19:30:22.187Z,38.80
2019-06-26T19:32:49.030Z,38.70
2019-06-26T19:35:19.178Z,38.70
2019-06-26T19:37:45.920Z,38.70
2019-06-26T19:40:15.294Z,38.70
2019-06-26T19:42:43.757Z,38.70
2019-06-26T19:45:11.362Z,38.70
2019-06-26T19:47:38.160Z,38.70
2019-06-26T19:50:06.033Z,38.70
2019-06-26T19:52:33.028Z,38.60
2019-06-26T19:54:59.770Z,38.60
2019-06-26T19:57:28.555Z,38.60
2019-06-26T19:59:55.527Z,38.70
2019-06-26T20:02:22.223Z,38.70
2019-06-26T20:04:48.930Z,38.70
2019-06-26T20:07:15.829Z,38.80
2019-06-26T20:09:42.381Z,38.80
2019-06-26T20:12:09.086Z,38.80
2019-06-26T20:14:35.968Z,38.90
2019-06-26T20:17:02.964Z,38.80
2019-06-26T20:19:29.396Z,38.70
2019-06-26T20:21:56.594Z,38.70
2019-06-26T20:24:23.155Z,38.60
2019-06-26T20:26:49.863Z,38.50
2019-06-26T20:29:16.910Z,38.50
2019-06-26T20:31:43.742Z,38.70
2019-06-26T20:34:10.536Z,38.80
2019-06-26T20:36:38.472Z,38.90
2019-06-26T20:39:05.292Z,39.00
2019-06-26T20:41:32.427Z,39.10
2019-06-26T20:43:59.535Z,39.10
2019-06-26T20:46:26.552Z,39.10
2019-06-26T20:48:53.314Z,39.10
2019-06-26T20:51:21.088Z,39.10
2019-06-26T20:53:48.296Z,39.10
2019-06-26T20:56:15.126Z,39.10
2019-06-26T20:58:42.342Z,39.10
2019-06-26T21:01:09.137Z,39.10
2019-06-26T21:03:35.693Z,39.10
2019-06-26T21:06:02.973Z,39.10
2019-06-26T21:08:29.767Z,39.10
2019-06-26T21:10:56.647Z,39.00
2019-06-26T21:13:23.573Z,39.10
2019-06-26T21:15:52.875Z,39.00
2019-06-26T21:18:19.090Z,39.00
2019-06-26T21:20:46.046Z,39.00
2019-06-26T21:23:18.489Z,38.90
2019-06-26T21:25:44.315Z,38.90
2019-06-26T21:28:11.160Z,38.90
2019-06-26T21:30:37.765Z,38.90
2019-06-26T21:33:04.849Z,38.90
2019-06-26T21:35:31.580Z,38.90
2019-06-26T21:37:58.327Z,38.80
2019-06-26T21:40:24.973Z,38.80
2019-06-26T21:42:51.747Z,38.80
2019-06-26T21:45:20.169Z,38.80
2019-06-26T21:47:47.255Z,38.80
2019-06-26T21:50:14.501Z,38.80
2019-06-26T21:52:41.238Z,38.70
2019-06-26T21:55:08.245Z,38.70
2019-06-26T21:57:53.736Z,38.70
2019-06-26T22:00:38.858Z,38.70
2019-06-26T22:03:24.507Z,38.70
2019-06-26T22:05:52.969Z,38.60
2019-06-26T22:08:37.362Z,38.60
2019-06-26T22:11:06.310Z,38.50
2019-06-26T22:13:33.277Z,38.50
2019-06-26T22:16:00.504Z,38.50
2019-06-26T22:18:27.259Z,38.40
2019-06-26T22:20:54.009Z,38.40
2019-06-26T22:23:21.051Z,38.30
2019-06-26T22:25:51.268Z,38.20
2019-06-26T22:28:16.082Z,38.20
2019-06-26T22:30:43.174Z,38.10
2019-06-26T22:33:09.733Z,38.10
2019-06-26T22:35:36.161Z,38.10
2019-06-26T22:38:03.169Z,38.10
2019-06-26T22:40:30.663Z,38.10
2019-06-26T22:42:57.327Z,38.00
2019-06-26T22:45:24.333Z,38.00
2019-06-26T22:47:50.793Z,38.00
2019-06-26T22:50:17.624Z,38.00
2019-06-26T22:52:44.564Z,37.90
2019-06-26T22:55:11.203Z,37.90
2019-06-26T22:57:37.774Z,37.90
2019-06-26T23:00:07.995Z,37.90
2019-06-26T23:02:36.764Z,37.90
2019-06-26T23:05:06.884Z,37.90
2019-06-26T23:07:33.943Z,37.80
2019-06-26T23:10:00.810Z,37.80
2019-06-26T23:12:27.270Z,37.80
2019-06-26T23:14:54.035Z,37.80
2019-06-26T23:17:20.714Z,37.80
2019-06-26T23:19:47.190Z,37.70
2019-06-26T23:22:13.962Z,37.70
2019-06-26T23:24:40.974Z,37.70
2019-06-26T23:27:08.815Z,37.70
2019-06-26T23:29:36.002Z,37.60
2019-06-26T23:32:03.482Z,37.50
2019-06-26T23:34:30.109Z,37.50
2019-06-26T23:36:56.939Z,37.50
2019-06-26T23:39:23.508Z,37.40
2019-06-26T23:41:50.146Z,37.40
2019-06-26T23:44:16.890Z,37.30
2019-06-26T23:46:43.838Z,37.40
2019-06-26T23:49:11.417Z,37.30
2019-06-26T23:51:38.251Z,37.20
2019-06-26T23:54:04.891Z,37.20
2019-06-26T23:56:40.433Z,37.20
2019-06-26T23:58:59.991Z,37.20
